sensor_id;sensor_type;location;lat;lon;timestamp;pressure;altitude;pressure_sealevel;temperature;humidity
51759;BME280;66684;47.568;18.734;2023-04-01T00:00:56;98094.75;;;8.33;100.00
51759;BME280;66684;47.568;18.734;2023-04-01T00:03:23;98098.00;;;8.25;100.00
51759;BME280;66684;47.568;18.734;2023-04-01T00:05:51;98094.78;;;8.35;100.00
51759;BME280;66684;47.568;18.734;2023-04-01T00:08:17;98104.34;;;8.37;100.00
51759;BME280;66684;47.568;18.734;2023-04-01T00:10:43;98105.75;;;8.26;100.00
51759;BME280;66684;47.568;18.734;2023-04-01T00:13:10;98105.06;;;8.33;100.00
51759;BME280;66684;47.568;18.734;2023-04-01T00:15:36;98095.13;;;8.47;100.00
51759;BME280;66684;47.568;18.734;2023-04-01T00:18:02;98099.53;;;8.51;100.00
51759;BME280;66684;47.568;18.734;2023-04-01T00:20:28;98102.28;;;8.24;100.00
51759;BME280;66684;47.568;18.734;2023-04-01T00:22:54;98099.88;;;8.32;100.00
51759;BME280;66684;47.568;18.734;2023-04-01T00:25:20;98110.44;;;8.41;100.00
51759;BME280;66684;47.568;18.734;2023-04-01T00:27:46;98105.28;;;8.41;100.00
51759;BME280;66684;47.568;18.734;2023-04-01T00:30:12;98101.22;;;8.49;100.00
51759;BME280;66684;47.568;18.734;2023-04-01T00:32:38;98101.38;;;8.55;100.00
51759;BME280;66684;47.568;18.734;2023-04-01T00:35:04;98093.78;;;8.61;100.00
51759;BME280;66684;47.568;18.734;2023-04-01T00:37:30;98084.38;;;8.63;100.00
51759;BME280;66684;47.568;18.734;2023-04-01T00:39:56;98088.69;;;8.64;100.00
51759;BME280;66684;47.568;18.734;2023-04-01T00:42:23;98080.97;;;8.64;100.00
51759;BME280;66684;47.568;18.734;2023-04-01T00:44:54;98080.37;;;8.75;100.00
51759;BME280;66684;47.568;18.734;2023-04-01T00:47:21;98086.25;;;8.69;100.00
51759;BME280;66684;47.568;18.734;2023-04-01T00:49:50;98088.13;;;8.76;100.00
51759;BME280;66684;47.568;18.734;2023-04-01T00:52:26;98099.09;;;8.68;100.00
51759;BME280;66684;47.568;18.734;2023-04-01T00:54:56;98091.28;;;8.64;100.00
51759;BME280;66684;47.568;18.734;2023-04-01T00:57:34;98095.28;;;8.53;100.00
51759;BME280;66684;47.568;18.734;2023-04-01T01:00:05;98088.78;;;8.68;100.00
51759;BME280;66684;47.568;18.734;2023-04-01T01:02:33;98092.09;;;8.63;100.00
51759;BME280;66684;47.568;18.734;2023-04-01T01:05:00;98099.56;;;8.53;100.00
51759;BME280;66684;47.568;18.734;2023-04-01T01:07:46;98091.06;;;8.55;100.00
51759;BME280;66684;47.568;18.734;2023-04-01T01:10:20;98090.00;;;8.47;100.00
51759;BME280;66684;47.568;18.734;2023-04-01T01:15:53;98090.19;;;8.55;100.00
51759;BME280;66684;47.568;18.734;2023-04-01T01:35:07;98082.44;;;8.91;100.00
51759;BME280;66684;47.568;18.734;2023-04-01T01:37:34;98086.56;;;8.84;100.00
51759;BME280;66684;47.568;18.734;2023-04-01T01:40:05;98084.03;;;8.86;100.00
51759;BME280;66684;47.568;18.734;2023-04-01T01:42:33;98086.66;;;8.87;100.00
51759;BME280;66684;47.568;18.734;2023-04-01T01:45:03;98086.41;;;9.14;100.00
51759;BME280;66684;47.568;18.734;2023-04-01T01:47:32;98080.91;;;8.99;100.00
51759;BME280;66684;47.568;18.734;2023-04-01T01:49:59;98082.84;;;9.09;100.00
51759;BME280;66684;47.568;18.734;2023-04-01T01:52:27;98084.44;;;9.04;100.00
51759;BME280;66684;47.568;18.734;2023-04-01T01:54:57;98080.91;;;8.99;100.00
51759;BME280;66684;47.568;18.734;2023-04-01T01:57:26;98079.28;;;9.04;100.00
51759;BME280;66684;47.568;18.734;2023-04-01T01:59:58;98076.03;;;9.11;100.00
51759;BME280;66684;47.568;18.734;2023-04-01T02:02:26;98076.62;;;9.00;100.00
51759;BME280;66684;47.568;18.734;2023-04-01T02:04:57;98075.81;;;9.02;100.00
51759;BME280;66684;47.568;18.734;2023-04-01T02:07:27;98073.94;;;8.95;100.00
51759;BME280;66684;47.568;18.734;2023-04-01T02:09:55;98073.09;;;8.95;100.00
51759;BME280;66684;47.568;18.734;2023-04-01T02:12:22;98072.13;;;8.91;100.00
51759;BME280;66684;47.568;18.734;2023-04-01T02:17:22;98068.78;;;8.95;100.00
51759;BME280;66684;47.568;18.734;2023-04-01T02:22:30;98067.28;;;9.05;100.00
51759;BME280;66684;47.568;18.734;2023-04-01T02:25:01;98067.19;;;9.00;100.00
51759;BME280;66684;47.568;18.734;2023-04-01T02:27:28;98061.03;;;8.94;100.00
51759;BME280;66684;47.568;18.734;2023-04-01T02:29:56;98062.03;;;9.00;100.00
51759;BME280;66684;47.568;18.734;2023-04-01T02:32:24;98057.50;;;8.88;100.00
51759;BME280;66684;47.568;18.734;2023-04-01T02:34:51;98056.72;;;8.93;100.00
51759;BME280;66684;47.568;18.734;2023-04-01T02:37:17;98061.09;;;8.97;100.00
51759;BME280;66684;47.568;18.734;2023-04-01T02:39:43;98056.69;;;8.91;100.00
51759;BME280;66684;47.568;18.734;2023-04-01T02:42:09;98053.25;;;8.92;100.00
51759;BME280;66684;47.568;18.734;2023-04-01T02:44:36;98053.25;;;8.92;100.00
51759;BME280;66684;47.568;18.734;2023-04-01T02:47:02;98049.75;;;8.87;100.00
51759;BME280;66684;47.568;18.734;2023-04-01T02:49:28;98050.47;;;8.81;100.00
51759;BME280;66684;47.568;18.734;2023-04-01T02:51:54;98054.06;;;8.89;100.00
51759;BME280;66684;47.568;18.734;2023-04-01T02:54:20;98046.09;;;8.79;100.00
51759;BME280;66684;47.568;18.734;2023-04-01T02:56:46;98042.69;;;8.80;100.00
51759;BME280;66684;47.568;18.734;2023-04-01T02:59:12;98032.31;;;8.77;100.00
51759;BME280;66684;47.568;18.734;2023-04-01T03:01:38;98041.03;;;8.82;100.00
51759;BME280;66684;47.568;18.734;2023-04-01T03:04:04;98038.62;;;8.89;100.00
51759;BME280;66684;47.568;18.734;2023-04-01T03:06:30;98039.66;;;8.60;100.00
51759;BME280;66684;47.568;18.734;2023-04-01T03:08:56;98033.50;;;8.53;100.00
51759;BME280;66684;47.568;18.734;2023-04-01T03:11:22;98029.13;;;8.49;100.00
51759;BME280;66684;47.568;18.734;2023-04-01T03:13:48;98031.09;;;8.61;100.00
51759;BME280;66684;47.568;18.734;2023-04-01T03:16:14;98040.38;;;8.54;100.00
51759;BME280;66684;47.568;18.734;2023-04-01T03:18:40;98045.59;;;8.56;100.00
51759;BME280;66684;47.568;18.734;2023-04-01T03:21:21;98046.03;;;8.38;100.00
51759;BME280;66684;47.568;18.734;2023-04-01T03:23:47;98045.19;;;8.39;100.00
51759;BME280;66684;47.568;18.734;2023-04-01T03:26:13;98052.25;;;8.13;100.00
51759;BME280;66684;47.568;18.734;2023-04-01T03:28:39;98058.16;;;8.10;100.00
51759;BME280;66684;47.568;18.734;2023-04-01T03:31:05;98067.50;;;8.07;100.00
51759;BME280;66684;47.568;18.734;2023-04-01T03:33:32;98069.50;;;8.17;100.00
51759;BME280;66684;47.568;18.734;2023-04-01T03:35:58;98069.06;;;8.00;100.00
51759;BME280;66684;47.568;18.734;2023-04-01T03:38:23;98066.56;;;8.03;100.00
51759;BME280;66684;47.568;18.734;2023-04-01T03:40:49;98068.53;;;8.14;100.00
51759;BME280;66684;47.568;18.734;2023-04-01T03:43:15;98079.19;;;8.29;100.00
51759;BME280;66684;47.568;18.734;2023-04-01T03:45:47;98072.16;;;8.22;100.00
51759;BME280;66684;47.568;18.734;2023-04-01T03:48:16;98069.53;;;8.19;100.00
51759;BME280;66684;47.568;18.734;2023-04-01T03:50:43;98068.59;;;8.17;100.00
51759;BME280;66684;47.568;18.734;2023-04-01T03:53:09;98077.50;;;7.95;100.00
51759;BME280;66684;47.568;18.734;2023-04-01T03:55:36;98074.03;;;7.94;100.00
51759;BME280;66684;47.568;18.734;2023-04-01T03:58:03;98075.63;;;7.89;100.00
51759;BME280;66684;47.568;18.734;2023-04-01T04:00:29;98087.13;;;8.03;100.00
51759;BME280;66684;47.568;18.734;2023-04-01T04:02:56;98082.09;;;8.06;100.00
51759;BME280;66684;47.568;18.734;2023-04-01T04:05:25;98082.16;;;8.09;100.00
51759;BME280;66684;47.568;18.734;2023-04-01T04:07:52;98095.94;;;8.11;100.00
51759;BME280;66684;47.568;18.734;2023-04-01T04:10:18;98088.22;;;8.11;100.00
51759;BME280;66684;47.568;18.734;2023-04-01T04:12:45;98089.53;;;7.97;100.00
51759;BME280;66684;47.568;18.734;2023-04-01T04:15:11;98088.44;;;7.88;100.00
51759;BME280;66684;47.568;18.734;2023-04-01T04:17:37;98094.75;;;7.99;100.00
51759;BME280;66684;47.568;18.734;2023-04-01T04:20:04;98086.56;;;7.82;100.00
51759;BME280;66684;47.568;18.734;2023-04-01T04:22:30;98091.00;;;7.88;100.00
51759;BME280;66684;47.568;18.734;2023-04-01T04:24:56;98085.25;;;7.98;100.00
51759;BME280;66684;47.568;18.734;2023-04-01T04:27:22;98086.81;;;7.91;100.00
51759;BME280;66684;47.568;18.734;2023-04-01T04:29:47;98087.22;;;7.73;100.00
51759;BME280;66684;47.568;18.734;2023-04-01T04:32:13;98090.06;;;7.84;100.00
51759;BME280;66684;47.568;18.734;2023-04-01T04:34:39;98081.28;;;7.76;100.00
51759;BME280;66684;47.568;18.734;2023-04-01T04:37:05;98091.22;;;7.64;100.00
51759;BME280;66684;47.568;18.734;2023-04-01T04:39:31;98097.03;;;7.56;100.00
51759;BME280;66684;47.568;18.734;2023-04-01T04:41:57;98092.78;;;7.58;100.00
51759;BME280;66684;47.568;18.734;2023-04-01T04:44:23;98091.59;;;7.47;100.00
51759;BME280;66684;47.568;18.734;2023-04-01T04:46:49;98098.97;;;7.35;100.00
51759;BME280;66684;47.568;18.734;2023-04-01T04:49:15;98095.66;;;7.39;100.00
51759;BME280;66684;47.568;18.734;2023-04-01T04:51:41;98083.09;;;7.48;100.00
51759;BME280;66684;47.568;18.734;2023-04-01T04:54:08;98084.16;;;7.56;100.00
51759;BME280;66684;47.568;18.734;2023-04-01T04:56:34;98090.06;;;7.54;100.00
51759;BME280;66684;47.568;18.734;2023-04-01T04:59:01;98094.41;;;7.55;100.00
51759;BME280;66684;47.568;18.734;2023-04-01T05:01:27;98094.53;;;7.60;100.00
51759;BME280;66684;47.568;18.734;2023-04-01T05:03:53;98097.31;;;7.67;100.00
51759;BME280;66684;47.568;18.734;2023-04-01T05:06:20;98094.16;;;7.77;100.00
51759;BME280;66684;47.568;18.734;2023-04-01T05:08:46;98098.47;;;7.78;100.00
51759;BME280;66684;47.568;18.734;2023-04-01T05:11:15;98096.75;;;7.79;100.00
51759;BME280;66684;47.568;18.734;2023-04-01T05:13:42;98103.56;;;7.77;100.00
51759;BME280;66684;47.568;18.734;2023-04-01T05:16:14;98100.00;;;7.72;100.00
51759;BME280;66684;47.568;18.734;2023-04-01T05:18:40;98098.59;;;7.83;100.00
51759;BME280;66684;47.568;18.734;2023-04-01T05:21:11;98099.47;;;7.83;100.00
51759;BME280;66684;47.568;18.734;2023-04-01T05:23:37;98099.59;;;7.88;100.00
51759;BME280;66684;47.568;18.734;2023-04-01T05:26:08;98101.50;;;7.95;100.00
51759;BME280;66684;47.568;18.734;2023-04-01T05:28:34;98093.94;;;8.01;100.00
51759;BME280;66684;47.568;18.734;2023-04-01T05:31:01;98102.91;;;7.84;100.00
51759;BME280;66684;47.568;18.734;2023-04-01T05:33:29;98101.44;;;7.92;100.00
51759;BME280;66684;47.568;18.734;2023-04-01T05:35:55;98098.94;;;7.95;100.00
51759;BME280;66684;47.568;18.734;2023-04-01T05:38:21;98108.38;;;7.96;100.00
51759;BME280;66684;47.568;18.734;2023-04-01T05:40:47;98121.50;;;8.05;100.00
51759;BME280;66684;47.568;18.734;2023-04-01T05:43:13;98118.09;;;8.06;100.00
51759;BME280;66684;47.568;18.734;2023-04-01T05:45:39;98120.31;;;7.93;100.00
51759;BME280;66684;47.568;18.734;2023-04-01T05:48:05;98112.78;;;8.00;100.00
51759;BME280;66684;47.568;18.734;2023-04-01T05:50:31;98120.00;;;8.14;100.00
51759;BME280;66684;47.568;18.734;2023-04-01T05:52:57;98123.28;;;8.41;100.00
51759;BME280;66684;47.568;18.734;2023-04-01T05:55:23;98121.69;;;8.45;100.00
51759;BME280;66684;47.568;18.734;2023-04-01T05:57:49;98122.72;;;8.53;100.00
51759;BME280;66684;47.568;18.734;2023-04-01T06:00:16;98120.56;;;8.68;100.00
51759;BME280;66684;47.568;18.734;2023-04-01T06:02:42;98116.41;;;8.75;100.00
51759;BME280;66684;47.568;18.734;2023-04-01T06:05:19;98115.47;;;8.71;100.00
51759;BME280;66684;47.568;18.734;2023-04-01T06:07:46;98101.75;;;8.72;100.00
51759;BME280;66684;47.568;18.734;2023-04-01T06:10:18;98101.31;;;8.90;100.00
51759;BME280;66684;47.568;18.734;2023-04-01T06:13:02;98102.16;;;8.89;100.00
51759;BME280;66684;47.568;18.734;2023-04-01T06:15:54;98103.19;;;8.97;100.00
51759;BME280;66684;47.568;18.734;2023-04-01T06:18:45;98113.72;;;9.06;100.00
51759;BME280;66684;47.568;18.734;2023-04-01T06:30:06;98112.97;;;9.53;100.00
51759;BME280;66684;47.568;18.734;2023-04-01T06:35:28;98113.38;;;9.72;100.00
51759;BME280;66684;47.568;18.734;2023-04-01T06:40:40;98117.87;;;9.81;100.00
51759;BME280;66684;47.568;18.734;2023-04-01T06:46:02;98117.41;;;10.02;100.00
51759;BME280;66684;47.568;18.734;2023-04-01T06:51:19;98124.78;;;10.27;100.00
51759;BME280;66684;47.568;18.734;2023-04-01T06:53:53;98122.97;;;10.23;100.00
51759;BME280;66684;47.568;18.734;2023-04-01T06:56:25;98122.22;;;10.31;100.00
51759;BME280;66684;47.568;18.734;2023-04-01T06:59:12;98126.53;;;10.30;100.00
51759;BME280;66684;47.568;18.734;2023-04-01T07:01:51;98123.03;;;10.26;100.00
51759;BME280;66684;47.568;18.734;2023-04-01T07:04:26;98123.28;;;10.42;100.00
51759;BME280;66684;47.568;18.734;2023-04-01T07:07:05;98123.28;;;10.42;100.00
51759;BME280;66684;47.568;18.734;2023-04-01T07:09:38;98131.16;;;10.49;100.00
51759;BME280;66684;47.568;18.734;2023-04-01T07:14:58;98135.63;;;10.57;100.00
51759;BME280;66684;47.568;18.734;2023-04-01T07:17:31;98131.31;;;10.57;98.33
51759;BME280;66684;47.568;18.734;2023-04-01T07:20:05;98128.56;;;10.46;99.91
51759;BME280;66684;47.568;18.734;2023-04-01T07:22:46;98132.81;;;10.44;100.00
51759;BME280;66684;47.568;18.734;2023-04-01T07:25:16;98127.38;;;10.29;100.00
51759;BME280;66684;47.568;18.734;2023-04-01T07:27:43;98131.00;;;10.39;100.00
51759;BME280;66684;47.568;18.734;2023-04-01T07:30:18;98132.25;;;10.62;99.38
51759;BME280;66684;47.568;18.734;2023-04-01T07:32:49;98128.88;;;10.66;96.14
51759;BME280;66684;47.568;18.734;2023-04-01T07:35:50;98125.53;;;10.73;100.00
51759;BME280;66684;47.568;18.734;2023-04-01T07:38:32;98123.81;;;10.72;97.38
51759;BME280;66684;47.568;18.734;2023-04-01T07:41:23;98128.06;;;10.69;100.00
51759;BME280;66684;47.568;18.734;2023-04-01T07:49:16;98149.25;;;11.01;96.54
51759;BME280;66684;47.568;18.734;2023-04-01T07:52:18;98140.69;;;11.05;96.28
51759;BME280;66684;47.568;18.734;2023-04-01T07:54:54;98142.38;;;11.03;97.24
51759;BME280;66684;47.568;18.734;2023-04-01T08:11:28;98149.66;;;10.72;97.29
51759;BME280;66684;47.568;18.734;2023-04-01T08:14:20;98160.16;;;10.83;99.21
51759;BME280;66684;47.568;18.734;2023-04-01T08:23:36;98144.97;;;11.03;94.17
51759;BME280;66684;47.568;18.734;2023-04-01T08:28:54;98145.91;;;11.08;98.34
51759;BME280;66684;47.568;18.734;2023-04-01T08:31:43;98151.78;;;10.98;97.47
51759;BME280;66684;47.568;18.734;2023-04-01T08:34:24;98143.81;;;10.86;96.44
51759;BME280;66684;47.568;18.734;2023-04-01T08:36:57;98141.72;;;11.16;97.85
51759;BME280;66684;47.568;18.734;2023-04-01T08:39:32;98141.87;;;11.28;96.15
51759;BME280;66684;47.568;18.734;2023-04-01T08:53:14;98147.25;;;11.44;96.05
51759;BME280;66684;47.568;18.734;2023-04-01T08:56:12;98139.50;;;11.44;100.00
51759;BME280;66684;47.568;18.734;2023-04-01T09:18:37;98141.56;;;12.43;87.69
51759;BME280;66684;47.568;18.734;2023-04-01T09:21:24;98138.91;;;12.37;84.13
51759;BME280;66684;47.568;18.734;2023-04-01T09:24:51;98147.31;;;12.13;85.86
51759;BME280;66684;47.568;18.734;2023-04-01T09:33:21;98132.66;;;12.14;88.27
51759;BME280;66684;47.568;18.734;2023-04-01T09:38:57;98132.97;;;12.45;83.88
51759;BME280;66684;47.568;18.734;2023-04-01T09:41:32;98142.28;;;12.27;86.95
51759;BME280;66684;47.568;18.734;2023-04-01T09:44:04;98144.66;;;12.09;85.14
51759;BME280;66684;47.568;18.734;2023-04-01T09:49:22;98143.53;;;11.87;89.19
51759;BME280;66684;47.568;18.734;2023-04-01T09:52:24;98151.28;;;11.82;88.84
51759;BME280;66684;47.568;18.734;2023-04-01T09:55:00;98143.19;;;11.59;89.13
51759;BME280;66684;47.568;18.734;2023-04-01T10:03:32;98158.00;;;11.71;90.10
51759;BME280;66684;47.568;18.734;2023-04-01T10:14:37;98145.41;;;11.99;89.74
51759;BME280;66684;47.568;18.734;2023-04-01T10:36:53;98147.44;;;12.26;85.38
51759;BME280;66684;47.568;18.734;2023-04-01T10:48:18;98140.87;;;12.63;81.58
51759;BME280;66684;47.568;18.734;2023-04-01T10:58:59;98136.97;;;13.17;79.07
51759;BME280;66684;47.568;18.734;2023-04-01T11:15:35;98135.00;;;12.82;78.24
51759;BME280;66684;47.568;18.734;2023-04-01T11:26:38;98140.16;;;12.79;76.73
51759;BME280;66684;47.568;18.734;2023-04-01T11:45:49;98153.81;;;12.61;78.36
51759;BME280;66684;47.568;18.734;2023-04-01T11:57:19;98141.53;;;13.47;77.00
51759;BME280;66684;47.568;18.734;2023-04-01T12:02:37;98139.09;;;13.88;72.04
51759;BME280;66684;47.568;18.734;2023-04-01T12:08:01;98140.78;;;13.71;69.73
51759;BME280;66684;47.568;18.734;2023-04-01T12:16:19;98135.50;;;13.56;71.44
51759;BME280;66684;47.568;18.734;2023-04-01T12:18:59;98140.59;;;13.37;74.15
51759;BME280;66684;47.568;18.734;2023-04-01T12:21:35;98136.88;;;13.03;72.75
51759;BME280;66684;47.568;18.734;2023-04-01T12:51:15;98132.13;;;13.75;70.89
51759;BME280;66684;47.568;18.734;2023-04-01T13:02:11;98140.72;;;13.59;70.76
51759;BME280;66684;47.568;18.734;2023-04-01T13:17:53;98136.94;;;13.08;73.81
51759;BME280;66684;47.568;18.734;2023-04-01T13:29:29;98157.22;;;12.56;87.18
51759;BME280;66684;47.568;18.734;2023-04-01T13:32:16;98174.97;;;12.19;93.63
51759;BME280;66684;47.568;18.734;2023-04-01T13:37:59;98182.88;;;11.04;100.00
51759;BME280;66684;47.568;18.734;2023-04-01T13:52:57;98165.34;;;10.85;100.00
51759;BME280;66684;47.568;18.734;2023-04-01T13:55:39;98159.22;;;10.79;100.00
51759;BME280;66684;47.568;18.734;2023-04-01T13:58:23;98157.59;;;10.85;100.00
51759;BME280;66684;47.568;18.734;2023-04-01T14:03:59;98152.03;;;11.13;100.00
51759;BME280;66684;47.568;18.734;2023-04-01T14:09:34;98147.31;;;11.47;100.00
51759;BME280;66684;47.568;18.734;2023-04-01T14:15:17;98145.94;;;11.75;100.00
51759;BME280;66684;47.568;18.734;2023-04-01T14:23:13;98134.47;;;12.24;100.00
51759;BME280;66684;47.568;18.734;2023-04-01T14:39:06;98119.81;;;13.31;88.79
51759;BME280;66684;47.568;18.734;2023-04-01T14:49:53;98126.69;;;13.26;86.34
51759;BME280;66684;47.568;18.734;2023-04-01T14:52:31;98127.59;;;13.31;79.58
51759;BME280;66684;47.568;18.734;2023-04-01T14:55:00;98131.94;;;13.38;75.16
51759;BME280;66684;47.568;18.734;2023-04-01T14:57:29;98133.59;;;13.26;73.68
51759;BME280;66684;47.568;18.734;2023-04-01T15:05:16;98131.91;;;13.32;71.58
51759;BME280;66684;47.568;18.734;2023-04-01T15:08:15;98132.72;;;13.22;70.09
51759;BME280;66684;47.568;18.734;2023-04-01T15:11:06;98128.41;;;13.21;70.06
51759;BME280;66684;47.568;18.734;2023-04-01T15:45:58;98136.88;;;13.02;70.32
51759;BME280;66684;47.568;18.734;2023-04-01T15:49:01;98137.75;;;13.02;70.72
51759;BME280;66684;47.568;18.734;2023-04-01T15:54:26;98147.13;;;12.83;69.87
51759;BME280;66684;47.568;18.734;2023-04-01T16:02:34;98152.12;;;12.65;74.10
51759;BME280;66684;47.568;18.734;2023-04-01T16:21:01;98168.78;;;12.90;70.07
51759;BME280;66684;47.568;18.734;2023-04-01T16:23:42;98167.81;;;12.77;70.95
51759;BME280;66684;47.568;18.734;2023-04-01T16:26:26;98173.03;;;12.83;72.26
51759;BME280;66684;47.568;18.734;2023-04-01T16:29:02;98172.22;;;12.89;70.05
51759;BME280;66684;47.568;18.734;2023-04-01T16:39:29;98185.06;;;12.77;71.08
51759;BME280;66684;47.568;18.734;2023-04-01T16:44:49;98183.28;;;12.71;69.20
51759;BME280;66684;47.568;18.734;2023-04-01T16:47:22;98183.31;;;12.74;70.32
51759;BME280;66684;47.568;18.734;2023-04-01T16:50:04;98188.59;;;12.83;70.39
51759;BME280;66684;47.568;18.734;2023-04-01T16:53:14;98189.44;;;12.82;70.79
51759;BME280;66684;47.568;18.734;2023-04-01T16:56:03;98192.00;;;12.79;71.02
51759;BME280;66684;47.568;18.734;2023-04-01T16:58:42;98202.53;;;12.98;72.42
51759;BME280;66684;47.568;18.734;2023-04-01T17:01:52;98205.03;;;12.88;72.93
51759;BME280;66684;47.568;18.734;2023-04-01T17:12:13;98219.69;;;12.03;77.68
51759;BME280;66684;47.568;18.734;2023-04-01T17:14:59;98217.72;;;11.83;79.62
51759;BME280;66684;47.568;18.734;2023-04-01T17:17:45;98217.87;;;11.96;80.22
51759;BME280;66684;47.568;18.734;2023-04-01T17:20:36;98216.13;;;11.95;79.13
51759;BME280;66684;47.568;18.734;2023-04-01T17:23:35;98223.91;;;11.98;80.82
51759;BME280;66684;47.568;18.734;2023-04-01T17:34:58;98236.78;;;11.32;87.23
51759;BME280;66684;47.568;18.734;2023-04-01T17:37:46;98239.81;;;11.07;89.43
51759;BME280;66684;47.568;18.734;2023-04-01T17:43:29;98259.88;;;10.73;91.58
51759;BME280;66684;47.568;18.734;2023-04-01T17:46:02;98251.41;;;10.80;91.65
51759;BME280;66684;47.568;18.734;2023-04-01T17:52:09;98255.69;;;10.80;91.54
51759;BME280;66684;47.568;18.734;2023-04-01T18:03:25;98265.75;;;10.22;96.78
51759;BME280;66684;47.568;18.734;2023-04-01T18:06:21;98270.34;;;9.93;98.38
51759;BME280;66684;47.568;18.734;2023-04-01T18:08:59;98265.97;;;9.91;99.04
51759;BME280;66684;47.568;18.734;2023-04-01T18:15:16;98268.78;;;10.02;99.30
51759;BME280;66684;47.568;18.734;2023-04-01T18:23:36;98280.03;;;9.67;100.00
51759;BME280;66684;47.568;18.734;2023-04-01T18:26:27;98278.16;;;9.60;100.00
51759;BME280;66684;47.568;18.734;2023-04-01T18:28:59;98294.47;;;9.58;100.00
51759;BME280;66684;47.568;18.734;2023-04-01T18:31:38;98296.66;;;9.42;100.00
51759;BME280;66684;47.568;18.734;2023-04-01T18:34:19;98298.38;;;9.42;100.00
51759;BME280;66684;47.568;18.734;2023-04-01T18:37:12;98302.28;;;9.26;100.00
51759;BME280;66684;47.568;18.734;2023-04-01T18:40:15;98303.66;;;9.12;100.00
51759;BME280;66684;47.568;18.734;2023-04-01T18:45:49;98312.00;;;9.03;100.00
51759;BME280;66684;47.568;18.734;2023-04-01T18:48:41;98316.97;;;8.96;100.00
51759;BME280;66684;47.568;18.734;2023-04-01T18:51:20;98320.28;;;8.91;100.00
51759;BME280;66684;47.568;18.734;2023-04-01T18:53:56;98324.03;;;9.03;100.00
51759;BME280;66684;47.568;18.734;2023-04-01T18:56:30;98320.84;;;9.11;100.00
51759;BME280;66684;47.568;18.734;2023-04-01T18:59:04;98323.53;;;9.17;100.00
51759;BME280;66684;47.568;18.734;2023-04-01T19:04:26;98332.19;;;9.19;100.00
51759;BME280;66684;47.568;18.734;2023-04-01T19:06:59;98327.19;;;9.26;100.00
51759;BME280;66684;47.568;18.734;2023-04-01T19:09:30;98328.06;;;9.26;100.00
51759;BME280;66684;47.568;18.734;2023-04-01T19:17:31;98330.59;;;9.25;100.00
51759;BME280;66684;47.568;18.734;2023-04-01T19:20:50;98326.91;;;9.15;100.00
51759;BME280;66684;47.568;18.734;2023-04-01T19:25:57;98327.72;;;9.12;100.00
51759;BME280;66684;47.568;18.734;2023-04-01T19:31:37;98329.81;;;9.27;100.00
51759;BME280;66684;47.568;18.734;2023-04-01T19:34:25;98326.31;;;9.25;100.00
51759;BME280;66684;47.568;18.734;2023-04-01T19:37:25;98334.09;;;9.27;100.00
51759;BME280;66684;47.568;18.734;2023-04-01T19:43:02;98335.66;;;9.22;100.00
51759;BME280;66684;47.568;18.734;2023-04-01T19:49:28;98342.31;;;9.12;100.00
51759;BME280;66684;47.568;18.734;2023-04-01T19:51:50;98342.09;;;9.04;100.00
51759;BME280;66684;47.568;18.734;2023-04-01T19:57:03;98337.56;;;8.62;100.00
51759;BME280;66684;47.568;18.734;2023-04-01T20:04:48;98346.56;;;8.20;100.00
51759;BME280;66684;47.568;18.734;2023-04-01T20:07:21;98345.75;;;8.21;100.00
51759;BME280;66684;47.568;18.734;2023-04-01T20:10:10;98338.19;;;8.27;100.00
51759;BME280;66684;47.568;18.734;2023-04-01T20:15:45;98347.87;;;8.05;100.00
51759;BME280;66684;47.568;18.734;2023-04-01T20:18:17;98350.94;;;8.22;100.00
51759;BME280;66684;47.568;18.734;2023-04-01T20:23:59;98357.66;;;8.46;100.00
51759;BME280;66684;47.568;18.734;2023-04-01T20:26:32;98352.66;;;8.50;100.00
51759;BME280;66684;47.568;18.734;2023-04-01T20:34:58;98366.16;;;8.73;100.00
51759;BME280;66684;47.568;18.734;2023-04-01T20:40:34;98364.38;;;9.02;100.00
51759;BME280;66684;47.568;18.734;2023-04-01T20:45:56;98362.66;;;9.03;100.00
51759;BME280;66684;47.568;18.734;2023-04-01T20:48:34;98360.91;;;9.00;100.00
51759;BME280;66684;47.568;18.734;2023-04-01T20:51:06;98378.09;;;9.01;100.00
51759;BME280;66684;47.568;18.734;2023-04-01T20:56:37;98378.00;;;8.98;96.91
51759;BME280;66684;47.568;18.734;2023-04-01T20:59:28;98380.84;;;9.07;96.46
51759;BME280;66684;47.568;18.734;2023-04-01T21:16:26;98395.31;;;8.72;97.24
51759;BME280;66684;47.568;18.734;2023-04-01T21:32:03;98398.69;;;8.41;100.00
51759;BME280;66684;47.568;18.734;2023-04-01T21:40:19;98392.97;;;8.50;100.00
51759;BME280;66684;47.568;18.734;2023-04-01T21:43:05;98402.28;;;8.46;100.00
51759;BME280;66684;47.568;18.734;2023-04-01T21:54:07;98402.22;;;8.43;100.00
51759;BME280;66684;47.568;18.734;2023-04-01T21:57:09;98399.06;;;8.53;100.00
51759;BME280;66684;47.568;18.734;2023-04-01T22:03:18;98395.84;;;8.60;100.00
51759;BME280;66684;47.568;18.734;2023-04-01T22:06:48;98396.62;;;8.58;100.00
51759;BME280;66684;47.568;18.734;2023-04-01T22:12:33;98403.94;;;8.44;100.00
51759;BME280;66684;47.568;18.734;2023-04-01T22:22:55;98408.06;;;8.68;100.00
51759;BME280;66684;47.568;18.734;2023-04-01T22:25:45;98404.72;;;8.70;100.00
51759;BME280;66684;47.568;18.734;2023-04-01T22:28:23;98411.72;;;8.76;100.00
51759;BME280;66684;47.568;18.734;2023-04-01T22:30:52;98407.28;;;8.70;100.00
51759;BME280;66684;47.568;18.734;2023-04-01T22:36:31;98409.94;;;8.73;100.00
51759;BME280;66684;47.568;18.734;2023-04-01T22:39:16;98408.16;;;8.71;100.00
51759;BME280;66684;47.568;18.734;2023-04-01T22:41:50;98411.47;;;8.67;100.00
51759;BME280;66684;47.568;18.734;2023-04-01T22:50:19;98421.22;;;8.77;100.00
51759;BME280;66684;47.568;18.734;2023-04-01T22:52:51;98428.06;;;8.76;100.00
51759;BME280;66684;47.568;18.734;2023-04-01T22:55:25;98431.19;;;8.66;100.00